Time;durP1;ratioP1;P1;durP2;ratioP2;P2;SDS_P1;SDS_P2;PMS_P1;PMS_P2;Temp;Humidity;BMP_temperature;BMP_pressure;BME280_temperature;BME280_humidity;BME280_pressure;Samples;Min_cycle;Max_cycle;Signal;HPM_P1;HPM_P2
2023/01/08 00:00:56;;;;;;;2.60;2.60;;;;;;;9.86;75.85;100151.84;5114198;28;20181;-69
2023/01/08 00:03:23;;;;;;;2.37;2.27;;;;;;;9.88;76.22;100139.19;5113682;28;20189;-69
2023/01/08 00:05:50;;;;;;;2.97;2.97;;;;;;;9.84;76.14;100141.28;5113908;28;20534;-69
2023/01/08 00:08:16;;;;;;;2.50;2.50;;;;;;;9.89;76.16;100140.88;5114122;28;20201;-69
2023/01/08 00:10:43;;;;;;;2.17;2.17;;;;;;;9.90;76.02;100127.41;5113784;28;20195;-68
2023/01/08 00:13:09;;;;;;;3.23;3.00;;;;;;;9.90;75.91;100118.53;5113549;28;20712;-68
2023/01/08 00:15:36;;;;;;;2.70;2.70;;;;;;;9.88;75.36;100117.81;5114065;28;20185;-68
2023/01/08 00:18:02;;;;;;;2.50;2.50;;;;;;;9.88;75.34;100115.97;5113615;28;20215;-68
2023/01/08 00:20:32;;;;;;;2.30;2.30;;;;;;;9.90;75.37;100108.69;5113540;28;20591;-68
2023/01/08 00:22:58;;;;;;;2.40;2.40;;;;;;;9.87;75.00;100106.25;5113419;28;20196;-69
2023/01/08 00:25:24;;;;;;;2.60;2.60;;;;;;;9.94;74.17;100107.47;5113708;28;20196;-68
2023/01/08 00:27:51;;;;;;;2.60;2.60;;;;;;;9.89;74.63;100108.78;5113366;28;20206;-68
2023/01/08 00:30:17;;;;;;;2.07;2.03;;;;;;;9.93;74.60;100108.44;5113434;28;20260;-68
2023/01/08 00:32:43;;;;;;;3.03;3.03;;;;;;;9.98;74.66;100103.59;5113405;28;20177;-69
2023/01/08 00:35:10;;;;;;;2.73;2.10;;;;;;;10.07;73.63;100103.81;5113413;28;20185;-69
2023/01/08 00:37:36;;;;;;;2.43;2.43;;;;;;;10.07;73.72;100102.00;5113745;28;20224;-68
2023/01/08 00:40:03;;;;;;;2.60;2.60;;;;;;;9.98;74.34;100092.03;5113354;28;20193;-69
2023/01/08 00:42:29;;;;;;;1.93;1.93;;;;;;;9.98;74.33;100094.69;5113253;28;20191;-68
2023/01/08 00:44:56;;;;;;;2.77;2.70;;;;;;;10.01;74.21;100094.47;5113255;28;20185;-68
2023/01/08 00:47:22;;;;;;;2.10;2.10;;;;;;;10.01;74.43;100108.69;5113413;28;20208;-69
2023/01/08 00:49:48;;;;;;;2.50;2.50;;;;;;;9.98;74.42;100097.38;5113493;28;20192;-68
2023/01/08 00:52:15;;;;;;;2.90;2.70;;;;;;;10.00;74.52;100106.13;5113515;28;20185;-68
2023/01/08 00:54:41;;;;;;;2.37;2.37;;;;;;;10.01;74.51;100108.69;5113198;28;20207;-68
2023/01/08 00:57:07;;;;;;;2.43;2.43;;;;;;;9.98;74.59;100097.38;5113326;28;20570;-68
2023/01/08 00:59:34;;;;;;;2.10;2.07;;;;;;;9.99;74.43;100102.59;5114925;28;20185;-68
2023/01/08 01:02:00;;;;;;;2.40;2.30;;;;;;;9.95;75.39;100092.28;5117493;28;20178;-69
2023/01/08 01:04:27;;;;;;;2.30;2.30;;;;;;;9.97;74.80;100077.81;5117331;28;20204;-68
2023/01/08 01:06:53;;;;;;;2.80;2.70;;;;;;;9.97;74.61;100079.63;5116948;28;20209;-68
2023/01/08 01:09:20;;;;;;;5.40;2.23;;;;;;;9.96;74.57;100084.13;5117327;28;20299;-68
2023/01/08 01:11:46;;;;;;;2.43;2.43;;;;;;;9.94;75.03;100071.88;5117246;28;20258;-68
2023/01/08 01:14:12;;;;;;;2.63;2.63;;;;;;;9.97;74.68;100084.97;5116842;28;20276;-68
2023/01/08 01:16:40;;;;;;;2.67;2.67;;;;;;;10.00;74.38;100080.22;5117100;28;20219;-68
2023/01/08 01:19:07;;;;;;;2.57;2.57;;;;;;;10.00;74.34;100074.03;5117010;28;20644;-68
2023/01/08 01:21:33;;;;;;;3.03;2.97;;;;;;;10.00;74.55;100074.88;5116410;28;20193;-68
2023/01/08 01:24:03;;;;;;;2.70;2.60;;;;;;;10.05;74.41;100082.53;5116557;28;20207;-68
2023/01/08 01:26:30;;;;;;;2.67;2.67;;;;;;;10.00;74.57;100082.06;5116372;28;20209;-68
2023/01/08 01:28:58;;;;;;;3.23;2.83;;;;;;;10.00;74.31;100090.09;5116296;28;20199;-68
2023/01/08 01:31:26;;;;;;;2.60;2.60;;;;;;;10.00;74.49;100092.75;5116307;28;20254;-68
2023/01/08 01:33:53;;;;;;;2.50;2.50;;;;;;;9.99;74.86;100070.50;5116244;28;20208;-68
2023/01/08 01:36:24;;;;;;;2.20;2.20;;;;;;;9.94;75.17;100066.50;5116443;28;20178;-68
2023/01/08 01:38:52;;;;;;;2.77;2.67;;;;;;;9.99;74.94;100083.03;5116185;28;20189;-68
2023/01/08 01:41:28;;;;;;;2.30;2.30;;;;;;;9.99;75.00;100085.72;5116095;28;20201;-68
2023/01/08 01:43:58;;;;;;;2.60;2.43;;;;;;;9.94;75.39;100085.25;5116638;28;20177;-68
2023/01/08 01:46:38;;;;;;;2.57;2.57;;;;;;;9.97;74.98;100080.47;5116185;28;20619;-68
2023/01/08 01:49:16;;;;;;;2.17;2.17;;;;;;;9.97;75.04;100080.47;5116273;28;20179;-68
2023/01/08 01:51:54;;;;;;;2.13;2.13;;;;;;;9.97;74.95;100076.97;5116485;28;20181;-68
2023/01/08 01:54:21;;;;;;;4.40;2.43;;;;;;;9.98;74.99;100078.66;5116181;28;20177;-68
2023/01/08 01:56:48;;;;;;;2.43;2.33;;;;;;;10.01;74.79;100083.78;5116064;28;20209;-68
2023/01/08 01:59:15;;;;;;;4.00;2.20;;;;;;;10.04;74.99;100086.19;5115654;28;20730;-68
2023/01/08 02:01:42;;;;;;;2.47;2.47;;;;;;;10.02;74.52;100078.28;5116039;28;20642;-68
2023/01/08 02:04:11;;;;;;;2.30;2.30;;;;;;;10.00;75.42;100082.06;5115662;28;20186;-69
2023/01/08 02:06:43;;;;;;;2.43;2.43;;;;;;;9.99;75.03;100083.03;5115651;28;20201;-69
2023/01/08 02:09:18;;;;;;;2.03;2.03;;;;;;;9.96;75.31;100081.47;5115594;28;20180;-69
2023/01/08 02:12:15;;;;;;;2.70;2.70;;;;;;;9.93;75.57;100072.81;5115140;28;20549;-68
2023/01/08 02:15:04;;;;;;;2.87;2.80;;;;;;;9.98;75.11;100074.16;5115487;28;20200;-68
2023/01/08 02:17:51;;;;;;;3.00;2.97;;;;;;;9.96;75.47;100062.75;5115604;28;20216;-68
2023/01/08 02:20:39;;;;;;;2.93;2.93;;;;;;;9.99;75.87;100057.13;5115524;28;20226;-68
2023/01/08 02:23:22;;;;;;;2.47;2.47;;;;;;;9.97;75.93;100069.78;5115942;28;20221;-68
2023/01/08 02:26:12;;;;;;;2.80;2.80;;;;;;;9.93;76.11;100071.00;5115892;28;20173;-68
2023/01/08 02:28:43;;;;;;;3.43;3.00;;;;;;;9.93;76.48;100052.25;5115326;28;20183;-68
2023/01/08 02:31:11;;;;;;;2.73;2.63;;;;;;;10.10;75.87;100061.59;5115754;28;20257;-68
2023/01/08 02:33:38;;;;;;;2.77;2.77;;;;;;;9.94;76.51;100055.81;5115384;28;20250;-68
2023/01/08 02:36:26;;;;;;;2.80;2.60;;;;;;;9.90;76.63;100046.31;5114983;28;20185;-68
2023/01/08 02:39:01;;;;;;;2.63;2.53;;;;;;;9.92;76.42;100031.84;5115516;28;20205;-69
2023/01/08 02:41:38;;;;;;;4.77;2.53;;;;;;;9.98;76.05;100041.19;5115538;28;20177;-69
2023/01/08 02:44:08;;;;;;;3.00;2.80;;;;;;;9.99;76.05;100032.22;5115223;28;20264;-68
2023/01/08 02:46:38;;;;;;;2.30;2.30;;;;;;;10.00;76.19;100029.41;5114825;28;20201;-68
2023/01/08 02:49:09;;;;;;;3.00;2.90;;;;;;;10.01;76.01;100024.91;5115081;28;20184;-68
2023/01/08 02:51:44;;;;;;;2.87;2.87;;;;;;;10.02;76.57;100015.91;5115045;28;20264;-68
2023/01/08 02:54:16;;;;;;;2.63;2.63;;;;;;;9.97;76.81;100010.94;5115198;28;20177;-68
2023/01/08 02:56:48;;;;;;;3.10;2.90;;;;;;;9.99;76.24;99997.44;5115023;28;20209;-68
2023/01/08 02:59:15;;;;;;;3.17;3.17;;;;;;;9.95;76.86;100001.31;5115185;28;20193;-68
2023/01/08 03:01:44;;;;;;;3.10;2.93;;;;;;;9.86;77.10;100002.06;5096734;28;20193;-69
2023/01/08 03:04:22;;;;;;;2.93;2.93;;;;;;;9.90;76.75;99993.69;5115137;28;20253;-69
2023/01/08 03:06:49;;;;;;;3.33;3.23;;;;;;;9.94;76.98;99991.63;5114871;28;20300;-69
2023/01/08 03:09:16;;;;;;;3.13;3.13;;;;;;;9.95;76.78;99982.59;5114681;28;20189;-69
2023/01/08 03:11:54;;;;;;;2.97;2.87;;;;;;;9.88;77.42;99984.91;5115151;28;20648;-69
2023/01/08 03:14:27;;;;;;;3.10;3.10;;;;;;;9.91;77.31;99983.81;5114772;28;20181;-69
2023/01/08 03:17:12;;;;;;;2.27;2.27;;;;;;;9.90;77.36;99982.13;5114421;28;20209;-68
2023/01/08 03:19:46;;;;;;;3.53;3.43;;;;;;;9.88;77.32;99976.06;5118181;28;20193;-69
2023/01/08 03:22:15;;;;;;;3.00;3.00;;;;;;;9.85;77.52;99971.81;5122596;28;20185;-69
2023/01/08 03:24:45;;;;;;;3.20;2.90;;;;;;;9.87;77.04;99974.38;5120139;28;20217;-69
2023/01/08 03:27:17;;;;;;;3.03;3.03;;;;;;;9.88;77.16;99976.91;5122041;28;20209;-68
2023/01/08 03:29:47;;;;;;;4.00;3.70;;;;;;;9.97;76.71;99969.97;5122815;28;20612;-68
2023/01/08 03:32:17;;;;;;;3.03;2.93;;;;;;;9.86;77.12;99970.81;5120023;28;20255;-69
2023/01/08 03:34:46;;;;;;;3.20;3.07;;;;;;;9.86;77.44;99969.97;5129170;28;20240;-69
2023/01/08 03:37:16;;;;;;;5.93;2.93;;;;;;;9.82;77.90;99971.19;5125815;28;20616;-69
2023/01/08 03:39:50;;;;;;;2.60;2.60;;;;;;;9.74;78.02;99978.00;5128788;28;20272;-69
2023/01/08 03:42:19;;;;;;;2.90;2.90;;;;;;;9.72;78.29;99963.06;5125018;28;20244;-69
2023/01/08 03:44:46;;;;;;;3.57;3.57;;;;;;;9.80;77.96;99961.47;5115671;28;20197;-69
2023/01/08 03:47:13;;;;;;;3.33;3.33;;;;;;;9.71;78.04;99966.72;5119156;28;20312;-69
2023/01/08 03:49:42;;;;;;;3.13;3.13;;;;;;;9.75;78.09;99960.16;5121057;28;20200;-69
2023/01/08 03:52:24;;;;;;;2.50;2.40;;;;;;;9.68;78.31;99966.97;5127746;28;20189;-69
2023/01/08 03:54:50;;;;;;;3.17;3.07;;;;;;;9.66;78.32;99966.25;5126145;28;20191;-69
2023/01/08 03:57:17;;;;;;;2.97;2.97;;;;;;;9.65;78.70;99961.84;5123552;28;20249;-69
2023/01/08 03:59:43;;;;;;;3.10;3.10;;;;;;;9.77;78.69;99963.56;5123104;28;20269;-69
2023/01/08 04:02:10;;;;;;;3.37;3.17;;;;;;;9.76;78.31;99959.19;5123702;28;20181;-69
2023/01/08 04:04:37;;;;;;;3.00;2.80;;;;;;;9.77;77.98;99950.19;5123835;28;20611;-69
2023/01/08 04:07:04;;;;;;;2.60;2.60;;;;;;;9.75;78.37;99936.94;5119828;28;20209;-68
2023/01/08 04:09:30;;;;;;;4.43;2.87;;;;;;;9.73;78.46;99944.22;5115320;28;20187;-69
2023/01/08 04:11:56;;;;;;;2.80;2.80;;;;;;;9.71;78.65;99945.34;5113641;28;20193;-68
2023/01/08 04:14:23;;;;;;;3.10;3.00;;;;;;;9.74;78.67;99940.56;5114081;28;20200;-68
2023/01/08 04:16:49;;;;;;;3.20;2.83;;;;;;;9.72;78.68;99942.53;5113776;28;20680;-68
2023/01/08 04:19:15;;;;;;;2.70;2.70;;;;;;;9.71;78.86;99945.34;5113510;28;20209;-69
2023/01/08 04:21:42;;;;;;;2.80;2.80;;;;;;;9.65;79.35;99951.16;5113442;28;20200;-69
2023/01/08 04:24:10;;;;;;;3.43;3.23;;;;;;;9.67;79.34;99951.91;5113503;28;20185;-69
2023/01/08 04:26:37;;;;;;;2.70;2.70;;;;;;;9.68;79.38;99953.63;5113502;28;20209;-70
2023/01/08 04:29:04;;;;;;;2.70;2.57;;;;;;;9.67;79.31;99941.19;5113750;28;20268;-68
2023/01/08 04:31:30;;;;;;;2.10;2.10;;;;;;;9.68;79.32;99942.91;5113928;28;20195;-68
2023/01/08 04:33:57;;;;;;;3.50;2.87;;;;;;;9.64;79.26;99944.13;5113993;28;20642;-68
2023/01/08 04:36:23;;;;;;;2.70;2.70;;;;;;;9.68;79.15;99937.56;5117352;28;20205;-67
2023/01/08 04:38:49;;;;;;;2.83;2.83;;;;;;;9.74;78.91;99937.06;5117350;28;20208;-68
2023/01/08 04:41:17;;;;;;;3.03;2.83;;;;;;;9.69;78.89;99934.75;5117518;28;20195;-68
2023/01/08 04:43:43;;;;;;;2.00;2.00;;;;;;;9.71;78.99;99938.16;5117244;28;20181;-68
2023/01/08 04:46:10;;;;;;;1.90;1.90;;;;;;;9.76;78.42;99929.75;5117129;28;20673;-67
2023/01/08 04:48:36;;;;;;;2.30;2.30;;;;;;;9.77;78.57;99929.66;5117221;28;20234;-67
2023/01/08 04:51:04;;;;;;;1.67;1.67;;;;;;;9.75;78.58;99920.06;5117760;28;20219;-68
2023/01/08 04:53:33;;;;;;;2.00;2.00;;;;;;;9.83;78.25;99922.09;5117724;28;20219;-68
2023/01/08 04:56:04;;;;;;;2.40;2.30;;;;;;;9.88;78.05;99909.19;5117112;28;20268;-68
2023/01/08 04:58:32;;;;;;;2.40;2.40;;;;;;;9.85;78.04;99925.50;5117634;28;20277;-68
2023/01/08 05:00:58;;;;;;;1.97;1.97;;;;;;;9.79;77.89;99917.00;5116974;28;20192;-68
2023/01/08 05:03:25;;;;;;;1.90;1.90;;;;;;;9.85;77.58;99901.44;5117520;28;20185;-68
2023/01/08 05:05:51;;;;;;;8.83;2.33;;;;;;;9.78;77.80;99906.44;5117149;28;20611;-68
2023/01/08 05:08:17;;;;;;;2.00;2.00;;;;;;;9.78;77.72;99906.44;5116755;28;20207;-68
2023/01/08 05:10:44;;;;;;;2.00;2.00;;;;;;;9.74;77.94;99907.63;5098464;28;20197;-68
2023/01/08 05:13:10;;;;;;;1.97;1.97;;;;;;;9.75;77.81;99899.50;5116705;28;20196;-68
2023/01/08 05:15:36;;;;;;;2.20;1.90;;;;;;;9.77;77.64;99913.59;5116701;28;20268;-68
2023/01/08 05:18:04;;;;;;;2.00;2.00;;;;;;;9.80;77.67;99910.66;5116470;28;20205;-68
2023/01/08 05:20:32;;;;;;;2.67;2.60;;;;;;;9.80;77.61;99905.31;5116482;28;20189;-68
2023/01/08 05:22:58;;;;;;;2.50;2.50;;;;;;;9.75;77.56;99912.88;5098270;28;20216;-68
2023/01/08 05:25:25;;;;;;;2.73;2.73;;;;;;;9.73;77.84;99911.31;5116710;28;20218;-68
2023/01/08 05:27:51;;;;;;;3.23;3.23;;;;;;;9.68;78.25;99910.84;5116658;28;20223;-68
2023/01/08 05:30:18;;;;;;;3.33;2.27;;;;;;;9.69;77.87;99908.00;5116326;28;20196;-68
2023/01/08 05:32:44;;;;;;;2.27;2.27;;;;;;;9.77;77.20;99918.09;5116320;28;20272;-68
2023/01/08 05:35:11;;;;;;;1.87;1.87;;;;;;;9.79;77.19;99905.44;5116248;28;20216;-68
2023/01/08 05:37:38;;;;;;;1.77;1.77;;;;;;;9.83;76.78;99901.53;5116311;28;20288;-68
2023/01/08 05:40:05;;;;;;;1.70;1.70;;;;;;;9.78;77.16;99895.72;5097874;28;20209;-68
2023/01/08 05:42:33;;;;;;;1.83;1.83;;;;;;;9.78;76.90;99893.91;5116452;28;20561;-68
2023/01/08 05:45:00;;;;;;;1.77;1.77;;;;;;;9.75;77.22;99891.47;5116127;28;20200;-68
2023/01/08 05:47:30;;;;;;;1.70;1.70;;;;;;;9.75;77.16;99890.66;5115055;28;20205;-68
2023/01/08 05:49:57;;;;;;;1.70;1.70;;;;;;;9.74;76.98;99889.78;5116152;28;20185;-68
2023/01/08 05:52:24;;;;;;;2.00;2.00;;;;;;;9.71;77.41;99892.69;5116179;28;20195;-68
2023/01/08 05:54:50;;;;;;;1.90;1.90;;;;;;;9.70;77.20;99891.00;5116093;28;20185;-68
2023/01/08 05:57:16;;;;;;;1.80;1.80;;;;;;;9.68;76.97;99890.28;5115837;28;20213;-67
2023/01/08 05:59:43;;;;;;;3.00;1.50;;;;;;;9.73;76.67;99889.91;5097564;28;20219;-67
2023/01/08 06:02:09;;;;;;;1.97;1.80;;;;;;;9.65;76.41;99885.19;5115804;28;20177;-67
2023/01/08 06:04:36;;;;;;;1.97;1.97;;;;;;;9.65;76.29;99893.22;5115747;28;20185;-68
2023/01/08 06:07:02;;;;;;;4.80;1.67;;;;;;;9.66;76.46;99900.25;5115927;28;20565;-67
2023/01/08 06:09:28;;;;;;;1.90;1.90;;;;;;;9.65;76.45;99901.25;5115694;28;20340;-68
2023/01/08 06:11:56;;;;;;;2.17;1.97;;;;;;;9.59;76.93;99902.56;5116157;28;20270;-68
2023/01/08 06:14:23;;;;;;;2.00;2.00;;;;;;;9.63;76.32;99899.66;5115836;28;20185;-68
2023/01/08 06:16:50;;;;;;;2.30;2.30;;;;;;;9.62;76.36;99898.78;5115375;28;20205;-68
2023/01/08 06:19:17;;;;;;;1.80;1.80;;;;;;;9.63;76.59;99899.66;5115363;28;20288;-68
2023/01/08 06:21:44;;;;;;;1.60;1.60;;;;;;;9.61;75.68;99891.75;5115279;28;20197;-68
2023/01/08 06:24:10;;;;;;;1.57;1.57;;;;;;;9.63;75.77;99894.31;5115590;28;20626;-67
2023/01/08 06:26:37;;;;;;;1.33;1.33;;;;;;;9.62;75.44;99903.28;5115467;28;20303;-67
2023/01/08 06:29:03;;;;;;;1.67;1.67;;;;;;;9.61;75.92;99888.25;5097163;28;20599;-67
2023/01/08 06:31:29;;;;;;;1.60;1.60;;;;;;;9.58;75.99;99892.88;5115168;28;20268;-67
2023/01/08 06:33:56;;;;;;;2.10;2.10;;;;;;;9.57;76.48;99903.66;5115060;28;20192;-68
2023/01/08 06:36:22;;;;;;;2.40;2.30;;;;;;;9.66;76.19;99896.72;5115266;28;20178;-67
2023/01/08 06:38:48;;;;;;;1.50;1.50;;;;;;;9.65;76.35;99903.03;5114937;28;20211;-67
2023/01/08 06:41:16;;;;;;;1.77;1.77;;;;;;;9.63;76.91;99891.66;5115268;28;20216;-68
2023/01/08 06:43:42;;;;;;;1.50;1.50;;;;;;;9.66;76.59;99900.25;5114845;28;20669;-68
2023/01/08 06:46:09;;;;;;;1.87;1.83;;;;;;;9.64;76.72;99896.84;5115094;28;20174;-68
2023/01/08 06:48:36;;;;;;;1.77;1.77;;;;;;;9.69;76.70;99904.50;5115126;28;20169;-68
2023/01/08 06:51:03;;;;;;;1.93;1.93;;;;;;;9.66;76.72;99892.22;5115359;28;20194;-68
2023/01/08 06:53:30;;;;;;;4.33;1.77;;;;;;;9.72;76.96;99906.91;5114920;28;20177;-68
2023/01/08 06:55:57;;;;;;;1.80;1.70;;;;;;;9.74;77.74;99932.56;5115244;28;20181;-68
2023/01/08 06:58:27;;;;;;;2.23;1.93;;;;;;;9.23;77.54;99937.59;5114257;28;20258;-69
2023/01/08 07:00:53;;;;;;;2.77;1.27;;;;;;;8.93;80.25;99952.38;5114967;28;20189;-69
2023/01/08 07:03:19;;;;;;;1.97;1.97;;;;;;;8.68;81.57;99948.06;5115119;28;20653;-69
2023/01/08 07:05:46;;;;;;;2.30;2.20;;;;;;;8.58;82.75;99957.75;5114992;28;20275;-69
2023/01/08 07:08:16;;;;;;;3.03;1.97;;;;;;;8.54;83.49;99957.13;5096123;28;20209;-70
2023/01/08 07:10:44;;;;;;;1.80;1.70;;;;;;;8.43;82.30;99957.13;5114492;28;20551;-70
2023/01/08 07:13:11;;;;;;;1.57;1.57;;;;;;;8.41;80.80;99962.56;5114676;28;20185;-70
2023/01/08 07:15:39;;;;;;;1.73;1.67;;;;;;;8.35;81.34;99951.44;5114402;28;20185;-70
2023/01/08 07:18:10;;;;;;;4.13;2.00;;;;;;;8.30;82.30;99963.31;5114328;28;20582;-70
2023/01/08 07:20:38;;;;;;;3.07;2.07;;;;;;;8.23;82.91;99961.22;5114349;28;20212;-70
2023/01/08 07:23:08;;;;;;;2.67;2.23;;;;;;;8.18;82.35;99953.56;5114269;28;20185;-70
2023/01/08 07:25:34;;;;;;;2.40;1.97;;;;;;;8.20;81.81;99958.78;5115060;28;20179;-70
2023/01/08 07:28:00;;;;;;;2.10;1.83;;;;;;;8.09;81.61;99959.56;5114099;28;20205;-70
2023/01/08 07:30:27;;;;;;;1.93;1.93;;;;;;;8.02;80.60;99969.00;5114412;28;20630;-70
2023/01/08 07:33:02;;;;;;;1.60;1.50;;;;;;;7.95;80.68;99963.28;5114099;28;20213;-70
2023/01/08 07:35:29;;;;;;;1.60;1.60;;;;;;;7.95;80.79;99967.72;5114642;28;20187;-70
2023/01/08 07:37:55;;;;;;;1.47;1.37;;;;;;;7.91;81.04;99963.63;5113906;28;20283;-70
2023/01/08 07:40:22;;;;;;;1.20;1.20;;;;;;;7.89;82.11;99964.56;5114169;28;20203;-70
2023/01/08 07:42:57;;;;;;;1.40;1.30;;;;;;;7.88;82.48;99973.53;5113877;28;20277;-70
2023/01/08 07:45:23;;;;;;;1.97;1.97;;;;;;;7.82;83.09;99975.78;5114374;28;20202;-70
2023/01/08 07:47:49;;;;;;;1.93;1.83;;;;;;;7.76;83.88;99973.59;5114437;28;20201;-70
2023/01/08 07:50:16;;;;;;;6.53;1.70;;;;;;;7.79;84.55;99984.00;5113960;28;20185;-70
2023/01/08 07:52:42;;;;;;;1.83;1.80;;;;;;;7.82;83.88;99981.13;5114257;28;20174;-70
2023/01/08 07:55:08;;;;;;;2.90;2.87;;;;;;;7.88;84.04;99970.03;5114051;28;20173;-70
2023/01/08 07:57:35;;;;;;;3.53;2.47;;;;;;;7.89;84.35;99974.38;5113815;28;20204;-70
2023/01/08 08:00:01;;;;;;;3.47;3.37;;;;;;;7.81;84.66;99972.28;5113983;28;20197;-70
2023/01/08 08:02:32;;;;;;;1.97;1.83;;;;;;;7.82;84.91;99981.97;5113804;28;20612;-70
2023/01/08 08:04:59;;;;;;;1.47;1.40;;;;;;;7.73;84.81;99969.28;5114581;28;20193;-70
2023/01/08 08:07:25;;;;;;;2.10;1.70;;;;;;;7.71;85.62;99973.91;5113934;28;20213;-70
2023/01/08 08:09:51;;;;;;;1.20;1.10;;;;;;;7.72;85.12;99969.44;5115966;28;20182;-70
2023/01/08 08:12:18;;;;;;;1.30;1.30;;;;;;;7.71;85.08;99963.25;5118383;28;20185;-70
2023/01/08 08:14:44;;;;;;;1.60;1.60;;;;;;;7.72;84.90;99958.75;5117872;28;20185;-70
2023/01/08 08:17:10;;;;;;;1.47;1.20;;;;;;;7.66;84.22;99946.72;5117969;28;20209;-70
2023/01/08 08:19:37;;;;;;;7.47;1.73;;;;;;;7.69;84.60;99951.84;5117973;28;20209;-70
2023/01/08 08:22:03;;;;;;;1.50;1.50;;;;;;;7.56;84.50;99946.53;5118367;28;20276;-70
2023/01/08 08:24:29;;;;;;;1.53;1.43;;;;;;;7.61;84.87;99960.41;5117967;28;20185;-70
2023/01/08 08:26:56;;;;;;;1.27;1.27;;;;;;;7.58;84.11;99959.75;5117592;28;20209;-70
2023/01/08 08:29:22;;;;;;;1.20;1.20;;;;;;;7.52;84.33;99947.72;5117553;28;20647;-70
2023/01/08 08:31:48;;;;;;;2.23;1.10;;;;;;;7.54;83.75;99950.28;5117541;28;20190;-70
2023/01/08 08:34:15;;;;;;;1.93;1.80;;;;;;;7.51;83.88;99951.34;5118007;28;20662;-70
2023/01/08 08:36:41;;;;;;;7.23;1.23;;;;;;;7.41;83.81;99955.63;5118329;28;20573;-70
2023/01/08 08:39:08;;;;;;;6.53;1.40;;;;;;;7.39;83.64;99949.56;5117712;28;20193;-70
2023/01/08 08:41:34;;;;;;;3.40;1.37;;;;;;;7.39;83.25;99950.41;5117659;28;20180;-70
2023/01/08 08:44:01;;;;;;;2.00;1.80;;;;;;;7.38;83.16;99951.38;5117958;28;20187;-70
2023/01/08 08:46:28;;;;;;;1.80;1.40;;;;;;;7.39;82.52;99949.56;5117781;28;20280;-70
2023/01/08 08:48:54;;;;;;;1.50;1.50;;;;;;;7.31;82.38;99944.78;5117132;28;20258;-70
2023/01/08 08:51:21;;;;;;;1.60;1.50;;;;;;;7.33;82.50;99952.69;5117151;28;20242;-70
2023/01/08 08:53:47;;;;;;;4.37;1.93;;;;;;;7.36;83.10;99950.63;5117049;28;20190;-70
2023/01/08 08:56:14;;;;;;;1.67;1.60;;;;;;;7.42;82.47;99941.34;5117025;28;20194;-70
2023/01/08 08:58:40;;;;;;;1.30;1.30;;;;;;;7.43;82.57;99943.91;5117237;28;20268;-70
2023/01/08 09:01:07;;;;;;;1.83;1.63;;;;;;;7.45;82.34;99946.47;5117461;28;20565;-70
2023/01/08 09:03:34;;;;;;;1.53;1.40;;;;;;;7.49;81.36;99936.44;5117210;28;20563;-70
2023/01/08 09:06:00;;;;;;;3.27;1.30;;;;;;;7.56;81.45;99930.53;5117217;28;20269;-70
2023/01/08 09:08:27;;;;;;;5.03;1.20;;;;;;;7.58;80.94;99928.63;5117244;28;20201;-70
2023/01/08 09:10:53;;;;;;;2.20;1.97;;;;;;;7.67;80.16;99927.13;5098722;28;20182;-70
2023/01/08 09:13:22;;;;;;;1.30;1.30;;;;;;;7.76;79.79;99922.94;5116999;28;20196;-70
2023/01/08 09:15:48;;;;;;;1.67;1.67;;;;;;;7.83;79.73;99926.84;5116787;28;20551;-71
2023/01/08 09:18:18;;;;;;;4.63;1.50;;;;;;;7.89;79.52;99921.06;5116557;28;20262;-70
2023/01/08 09:20:44;;;;;;;1.30;1.30;;;;;;;8.01;79.05;99922.81;5116305;28;20565;-70
2023/01/08 09:23:10;;;;;;;1.90;1.80;;;;;;;8.10;78.35;99930.13;5116495;28;20198;-71
2023/01/08 09:25:37;;;;;;;4.57;1.67;;;;;;;8.16;78.09;99920.81;5116476;28;20555;-71
2023/01/08 09:28:06;;;;;;;3.00;1.43;;;;;;;8.24;77.28;99918.44;5116649;28;20201;-70
2023/01/08 09:30:33;;;;;;;1.83;1.20;;;;;;;8.35;76.66;99917.63;5116409;28;20181;-70
2023/01/08 09:33:02;;;;;;;1.90;1.80;;;;;;;8.37;77.42;99914.84;5116325;28;20195;-70
2023/01/08 09:35:30;;;;;;;3.37;2.00;;;;;;;8.45;75.97;99925.81;5116528;28;20189;-70
2023/01/08 09:37:56;;;;;;;4.30;1.87;;;;;;;8.44;75.07;99918.78;5116089;28;20197;-70
2023/01/08 09:40:53;;;;;;;2.40;2.17;;;;;;;8.55;75.56;99915.28;5116105;28;20296;-70
2023/01/08 09:43:23;;;;;;;6.87;2.00;;;;;;;8.56;74.04;99909.81;5116212;28;20174;-70
2023/01/08 09:45:53;;;;;;;7.30;2.10;;;;;;;8.66;74.29;99908.16;5116389;28;20193;-70
2023/01/08 09:48:24;;;;;;;6.33;1.50;;;;;;;8.73;73.73;99913.88;5115940;28;20209;-70
2023/01/08 09:50:51;;;;;;;5.73;1.53;;;;;;;8.81;73.28;99910.59;5116299;28;20167;-71
2023/01/08 09:53:17;;;;;;;8.50;1.77;;;;;;;8.83;73.85;99906.84;5116521;28;20604;-71
2023/01/08 09:56:00;;;;;;;7.27;2.03;;;;;;;8.88;73.68;99904.69;5116439;28;20188;-70
2023/01/08 09:58:49;;;;;;;5.23;1.43;;;;;;;9.02;73.76;99914.25;5116164;28;20230;-71
2023/01/08 10:01:18;;;;;;;5.93;2.00;;;;;;;9.05;73.11;99908.69;5116054;28;20276;-70
2023/01/08 10:03:49;;;;;;;1.87;1.53;;;;;;;9.11;73.14;99902.84;5115704;28;20238;-70
2023/01/08 10:06:16;;;;;;;3.73;1.40;;;;;;;9.22;72.93;99901.16;5116241;28;20671;-70
2023/01/08 10:08:43;;;;;;;4.33;1.83;;;;;;;9.35;73.36;99905.41;5115659;28;20195;-71
2023/01/08 10:11:15;;;;;;;4.00;2.10;;;;;;;9.46;72.58;99906.38;5115885;28;20252;-70
2023/01/08 10:13:47;;;;;;;10.13;1.30;;;;;;;9.48;72.14;99907.94;5115791;28;20542;-71
2023/01/08 10:16:25;;;;;;;1.70;1.60;;;;;;;9.52;72.30;99890.66;5115666;28;20534;-71
2023/01/08 10:18:52;;;;;;;1.67;1.43;;;;;;;9.52;72.38;99887.16;5115694;28;20177;-71
2023/01/08 10:21:18;;;;;;;3.30;1.37;;;;;;;9.46;72.49;99887.66;5115156;28;20232;-71
2023/01/08 10:23:52;;;;;;;1.60;1.50;;;;;;;9.47;73.08;99878.66;5115570;28;20644;-71
2023/01/08 10:26:36;;;;;;;2.20;1.70;;;;;;;9.44;72.49;99871.75;5115496;28;20252;-70
2023/01/08 10:29:17;;;;;;;1.80;1.70;;;;;;;9.47;72.45;99868.81;5115490;28;20176;-70
2023/01/08 10:31:48;;;;;;;2.90;1.70;;;;;;;9.59;73.22;99862.47;5115176;28;20177;-70
2023/01/08 10:34:24;;;;;;;1.50;1.50;;;;;;;9.71;71.70;99865.97;5115450;28;20563;-70
2023/01/08 10:36:53;;;;;;;1.30;1.20;;;;;;;9.78;71.57;99853.78;5115051;28;20291;-70
2023/01/08 10:39:24;;;;;;;1.90;1.80;;;;;;;9.87;71.26;99859.38;5114885;28;20185;-70
2023/01/08 10:41:54;;;;;;;1.40;1.40;;;;;;;9.98;71.08;99846.81;5115013;28;20226;-70
2023/01/08 10:44:23;;;;;;;1.30;1.30;;;;;;;10.12;71.07;99837.59;5114906;28;20611;-70
2023/01/08 10:46:54;;;;;;;1.80;1.63;;;;;;;10.16;70.11;99832.84;5114789;28;20211;-70
2023/01/08 10:49:42;;;;;;;3.77;1.80;;;;;;;10.10;69.64;99826.16;5114831;28;20177;-70
2023/01/08 10:52:32;;;;;;;1.40;1.40;;;;;;;10.24;69.99;99819.66;5115078;28;20627;-70
2023/01/08 10:55:23;;;;;;;1.40;1.30;;;;;;;10.30;68.96;99819.19;5115064;28;20232;-70
2023/01/08 10:57:59;;;;;;;4.20;1.73;;;;;;;10.41;67.69;99812.88;5114868;28;20209;-70
2023/01/08 11:00:36;;;;;;;1.43;1.37;;;;;;;10.58;68.03;99811.44;5114546;28;20208;-70
2023/01/08 11:03:39;;;;;;;3.80;1.47;;;;;;;10.58;67.93;99806.06;5114870;28;20235;-70
2023/01/08 11:06:17;;;;;;;1.63;1.60;;;;;;;10.66;67.50;99795.56;5012543;28;20223;-70
2023/01/08 11:08:50;;;;;;;1.93;1.83;;;;;;;10.75;67.47;99796.56;5104120;28;20211;-70
2023/01/08 11:11:17;;;;;;;1.30;1.30;;;;;;;10.82;66.68;99787.88;5114685;28;20166;-70
2023/01/08 11:13:57;;;;;;;1.50;1.20;;;;;;;10.84;66.94;99785.06;5114351;28;20195;-71
2023/01/08 11:16:39;;;;;;;2.30;1.43;;;;;;;10.95;67.03;99786.78;5114576;28;20200;-70
2023/01/08 11:19:21;;;;;;;1.90;1.50;;;;;;;11.05;65.72;99782.31;5114237;28;20199;-70
2023/01/08 11:21:59;;;;;;;1.47;1.43;;;;;;;11.18;66.68;99782.91;5114248;28;20267;-70
2023/01/08 11:24:33;;;;;;;2.03;1.50;;;;;;;11.16;66.08;99776.84;5114578;28;20177;-70
2023/01/08 11:27:08;;;;;;;1.80;1.80;;;;;;;10.97;65.31;99771.44;5114343;28;20209;-70
2023/01/08 11:29:49;;;;;;;1.70;1.60;;;;;;;10.92;65.57;99763.81;5114665;28;20173;-70
2023/01/08 11:32:47;;;;;;;1.50;1.50;;;;;;;10.84;66.86;99764.47;5114718;28;20509;-70
2023/01/08 11:35:28;;;;;;;2.50;1.50;;;;;;;10.76;65.90;99752.75;5114478;28;20611;-71
2023/01/08 11:37:58;;;;;;;1.77;1.73;;;;;;;10.76;66.44;99756.28;5114021;28;20694;-70
2023/01/08 11:40:51;;;;;;;1.50;1.50;;;;;;;10.83;66.16;99745.88;5114102;28;20250;-70
2023/01/08 11:43:40;;;;;;;1.70;1.60;;;;;;;10.76;67.45;99742.88;5113516;28;20188;-70
2023/01/08 11:46:32;;;;;;;4.20;1.70;;;;;;;10.75;66.76;99738.53;5113840;28;20234;-70
2023/01/08 11:49:05;;;;;;;1.80;1.70;;;;;;;10.69;67.28;99739.06;5113915;28;20258;-70
2023/01/08 11:52:05;;;;;;;1.30;1.30;;;;;;;10.61;66.35;99725.50;5096072;28;20671;-70